Search for airport 
image banner adimage banner adimage banner ad
image banner ad

CA33 - County Medical Center

Located in San Jose, United States

ICAO - CA33, IATA -

Data provided by Airmate  

General information

Coordinates: N37°18'48" W121°56'4"
Elevation is 148 feet MSL.
Magnetic variation is 16° East
View others Airports in California

Operational data

Special qualification required
Current time UTC:
Current local time:
METAR: KSJC 211253Z COR 17006KT 10SM FEW010 FEW016 14/11 A2991 RMK AO2 SLP126 T01440111 $
TAF: KSJC 211139Z 2112/2212 VRB04KT P6SM SKC FM212100 31010KT P6SM SCT250 FM220300 VRB04KT P6SM SKC
View NOTAMs / SUP AIP / TFR affecting this airport [VIEW]
Communications frequencies: [VIEW]

Runways:

Airport contact information

Address: San Jose United States

Satellite view of CA33